Huvudsida
METAR-TAF:

METAR-TAF

Flygplatser :

Örebro flygplats

Örebro, Sverige

latitud: 59-14N, longitud: 015-03E, höjd: 57 m

Aktuellt väderrapport

Denna rapport gjordes för 19 minuter sedan, klockan 18:20 UTC
Vind 8 kt från nord/nordost
Temperatur 0°C
Fuktighet 80%
Tryck 1033 hPa
Sikt 10 km eller mer
Mulet på en höjd av 1700 ft

METAR: ESOE 131820Z 03008KT 9999 OVC017 M00/M03 Q1033

Tid: 19:39 (18:39 UTC)

Väderprognos

Denna rapport gjordes för 1 timme och 9 minuter sedan, klockan 17:30 UTC
Prognos gäller från 13 kl. 18 UTC till 13 kl. 24 UTC
Vind 5 kt från nordost
Sikt 10 km eller mer
Få moln på en höjd av 1000 ft
Mulet på en höjd av 2000 ft
Sannolikhet 40%
från 13 kl. 18 UTC till 13 kl. 24 UTC
Brutna moln på en höjd av 900 ft

TAF: ESOE 131730Z 1318/1324 04005KT 9999 FEW010 OVC020 PROB40 1318/1324 BKN009

Aktuella väderrapporter och prognoser från 4000 flygplatser (METAR- och TAF-rapporter).

De tillgängliga stationerna syns som gula och röda prickar på kartan.

För musen över prickarna för att se namnen på stationerna.

Klicka sedan för att få väderrapporter och prognoser.

För att ändra kartan: Klicka på de gröna knapparna med ett svart kors på för att zooma in; den gröna knappen med ett streck på för att zooma ut; eller på de gröna pilarna för angränsande kartor.


METAR-TAF: